createdAt,value
2022-12-08T00:01:09.366Z,100967.09
2022-12-08T00:04:16.830Z,100965.25
2022-12-08T00:07:42.069Z,100967.75
2022-12-08T00:10:50.216Z,100973.50
2022-12-08T00:13:57.437Z,100971.50
2022-12-08T00:17:05.212Z,100956.56
2022-12-08T00:20:12.554Z,100963.00
2022-12-08T00:23:19.501Z,100959.16
2022-12-08T00:26:26.345Z,100950.97
2022-12-08T00:29:32.545Z,100947.44
2022-12-08T00:32:39.584Z,100948.50
2022-12-08T00:35:46.187Z,100946.41
2022-12-08T00:38:53.104Z,100938.88
2022-12-08T00:42:14.383Z,100940.47
2022-12-08T00:45:22.352Z,100928.00
2022-12-08T00:48:28.316Z,100937.84
2022-12-08T00:51:35.109Z,100934.66
2022-12-08T00:54:41.375Z,100933.09
2022-12-08T00:57:47.607Z,100933.91
2022-12-08T01:00:53.866Z,100932.03
2022-12-08T01:04:07.584Z,100924.44
2022-12-08T01:07:14.077Z,100933.59
2022-12-08T01:10:20.966Z,100932.09
2022-12-08T01:13:27.108Z,100928.84
2022-12-08T01:16:36.062Z,100934.69
2022-12-08T01:19:42.007Z,100928.28
2022-12-08T01:22:48.490Z,100920.22
2022-12-08T01:25:55.514Z,100931.31
2022-12-08T01:29:01.834Z,100934.50
2022-12-08T01:32:09.897Z,100933.59
2022-12-08T01:35:16.934Z,100934.41
2022-12-08T01:38:23.763Z,100943.34
2022-12-08T01:41:33.584Z,100942.78
2022-12-08T01:44:40.208Z,100936.22
2022-12-08T01:47:49.581Z,100925.94
2022-12-08T01:50:57.350Z,100922.44
2022-12-08T01:54:06.528Z,100922.72
2022-12-08T01:57:23.275Z,100914.75
2022-12-08T02:00:30.227Z,100913.72
2022-12-08T02:03:44.864Z,100913.94
2022-12-08T02:06:52.683Z,100919.16
2022-12-08T02:09:59.305Z,100916.69
2022-12-08T02:13:10.053Z,100910.31
2022-12-08T02:16:38.877Z,100909.22
2022-12-08T02:20:06.249Z,100904.16
2022-12-08T02:23:26.714Z,100896.72
2022-12-08T02:26:53.609Z,100890.53
2022-12-08T02:29:59.795Z,100891.56
2022-12-08T02:33:33.332Z,100891.66
2022-12-08T02:36:56.161Z,100893.94
2022-12-08T02:40:22.237Z,100886.78
2022-12-08T02:43:37.286Z,100883.06
2022-12-08T02:46:59.797Z,100880.59
2022-12-08T02:50:07.427Z,100873.84
2022-12-08T02:56:52.965Z,100882.00
2022-12-08T03:00:11.696Z,100885.66
2022-12-08T03:03:26.550Z,100886.31
2022-12-08T03:06:32.593Z,100879.88
2022-12-08T03:10:09.026Z,100881.63
2022-12-08T03:13:57.217Z,100871.88
2022-12-08T03:17:05.135Z,100874.47
2022-12-08T03:20:15.945Z,100876.28
2022-12-08T03:23:25.220Z,100865.94
2022-12-08T03:26:55.200Z,100867.44
2022-12-08T03:30:02.840Z,100867.16
2022-12-08T03:33:21.250Z,100866.28
2022-12-08T03:36:27.901Z,100857.94
2022-12-08T03:39:34.339Z,100862.34
2022-12-08T03:42:40.119Z,100857.03
2022-12-08T03:45:46.463Z,100854.31
2022-12-08T03:48:53.112Z,100863.09
2022-12-08T03:51:59.697Z,100857.25
2022-12-08T03:55:06.879Z,100842.81
2022-12-08T03:58:13.223Z,100844.19
2022-12-08T04:01:19.692Z,100839.28
2022-12-08T04:04:26.983Z,100846.13
2022-12-08T04:07:34.142Z,100844.47
2022-12-08T04:10:41.947Z,100842.28
2022-12-08T04:13:49.021Z,100846.59
2022-12-08T04:16:55.272Z,100850.06
2022-12-08T04:20:01.952Z,100838.84
2022-12-08T04:23:10.305Z,100843.34
2022-12-08T04:26:18.304Z,100839.88
2022-12-08T04:29:24.355Z,100838.41
2022-12-08T04:32:30.823Z,100839.91
2022-12-08T04:35:36.981Z,100832.00
2022-12-08T04:38:43.632Z,100831.34
2022-12-08T04:41:50.187Z,100833.94
2022-12-08T04:44:56.663Z,100827.41
2022-12-08T04:48:03.330Z,100826.09
2022-12-08T04:51:19.097Z,100822.16
2022-12-08T04:54:25.241Z,100827.28
2022-12-08T04:57:32.799Z,100823.44
2022-12-08T05:00:39.621Z,100826.16
2022-12-08T05:03:45.821Z,100820.50
2022-12-08T05:06:52.348Z,100824.78
2022-12-08T05:09:58.743Z,100827.03
2022-12-08T05:13:05.695Z,100828.50
2022-12-08T05:16:15.099Z,100826.31
2022-12-08T05:19:21.946Z,100823.47
2022-12-08T05:22:29.036Z,100818.59
2022-12-08T05:25:36.070Z,100826.94
2022-12-08T05:28:43.640Z,100822.50
2022-12-08T05:31:51.544Z,100822.03
2022-12-08T05:34:58.556Z,100812.22
2022-12-08T05:38:06.289Z,100810.56
2022-12-08T05:41:16.422Z,100811.19
2022-12-08T05:44:23.335Z,100828.97
2022-12-08T05:47:34.532Z,100824.38
2022-12-08T05:50:49.704Z,100822.72
2022-12-08T05:53:57.805Z,100822.94
2022-12-08T05:57:04.846Z,100830.22
2022-12-08T06:00:11.658Z,100833.19
2022-12-08T06:03:20.307Z,100848.16
2022-12-08T06:06:27.433Z,100833.75
2022-12-08T06:09:33.549Z,100833.19
2022-12-08T06:12:40.918Z,100831.13
2022-12-08T06:15:48.078Z,100835.53
2022-12-08T06:18:54.981Z,100832.53
2022-12-08T06:22:01.580Z,100823.31
2022-12-08T06:25:10.191Z,100819.88
2022-12-08T06:28:18.098Z,100822.28
2022-12-08T06:31:27.945Z,100822.75
2022-12-08T06:34:35.162Z,100828.66
2022-12-08T06:37:42.042Z,100827.94
2022-12-08T06:40:58.515Z,100822.56
2022-12-08T06:44:07.570Z,100813.66
2022-12-08T06:47:14.715Z,100814.94
2022-12-08T06:50:23.127Z,100811.19
2022-12-08T06:53:31.339Z,100829.53
2022-12-08T06:56:39.436Z,100828.63
2022-12-08T06:59:47.375Z,100815.91
2022-12-08T07:02:54.111Z,100807.72
2022-12-08T07:06:04.129Z,100817.28
2022-12-08T07:09:44.744Z,100821.75
2022-12-08T07:13:10.180Z,100820.53
2022-12-08T07:16:16.804Z,100818.03
2022-12-08T07:19:25.083Z,100817.38
2022-12-08T07:22:33.277Z,100820.25
2022-12-08T07:25:40.291Z,100809.88
2022-12-08T07:28:48.536Z,100810.00
2022-12-08T07:31:55.912Z,100816.38
2022-12-08T07:35:03.091Z,100821.09
2022-12-08T07:38:12.924Z,100824.34
2022-12-08T07:41:23.656Z,100818.59
2022-12-08T07:44:35.491Z,100816.94
2022-12-08T07:48:07.076Z,100827.25
2022-12-08T07:51:30.992Z,100822.78
2022-12-08T07:55:37.364Z,100818.16
2022-12-08T07:58:57.104Z,100813.13
2022-12-08T08:02:23.425Z,100818.81
2022-12-08T08:05:49.833Z,100815.19
2022-12-08T08:08:57.175Z,100819.25
2022-12-08T08:12:30.097Z,100817.25
2022-12-08T08:15:35.559Z,100825.38
2022-12-08T08:18:45.455Z,100812.88
2022-12-08T08:21:53.392Z,100808.75
2022-12-08T08:25:00.888Z,100818.91
2022-12-08T08:28:07.795Z,100820.22
2022-12-08T08:31:14.684Z,100819.34
2022-12-08T08:34:20.933Z,100817.75
2022-12-08T08:37:28.423Z,100818.69
2022-12-08T08:40:36.339Z,100816.44
2022-12-08T08:43:42.722Z,100813.25
2022-12-08T08:46:51.124Z,100812.91
2022-12-08T08:49:58.261Z,100828.44
2022-12-08T08:53:05.420Z,100818.72
2022-12-08T08:56:14.774Z,100812.72
2022-12-08T08:59:20.853Z,100818.81
2022-12-08T09:02:26.621Z,100819.28
2022-12-08T09:05:32.307Z,100827.44
2022-12-08T09:08:38.253Z,100822.38
2022-12-08T09:11:44.812Z,100824.16
2022-12-08T09:14:50.407Z,100819.09
2022-12-08T09:17:56.990Z,100817.47
2022-12-08T09:21:17.002Z,100822.56
2022-12-08T09:24:23.547Z,100823.38
2022-12-08T09:27:32.221Z,100822.06
2022-12-08T09:30:37.927Z,100831.47
2022-12-08T09:33:44.268Z,100831.63
2022-12-08T09:36:49.973Z,100839.44
2022-12-08T09:39:56.039Z,100840.34
2022-12-08T09:43:19.922Z,100835.19
2022-12-08T09:46:29.169Z,100836.50
2022-12-08T09:50:07.899Z,100818.94
2022-12-08T09:53:18.321Z,100817.13
2022-12-08T09:56:27.704Z,100824.66
2022-12-08T09:59:35.522Z,100817.78
2022-12-08T10:02:47.972Z,100823.81
2022-12-08T10:06:13.910Z,100810.81
2022-12-08T10:09:26.253Z,100808.34
2022-12-08T10:12:55.974Z,100788.19
2022-12-08T10:16:31.922Z,100792.50
2022-12-08T10:19:42.103Z,100792.75
2022-12-08T10:22:57.505Z,100797.38
2022-12-08T10:26:16.144Z,100789.94
2022-12-08T10:29:21.829Z,100790.56
2022-12-08T10:32:34.642Z,100798.31
2022-12-08T10:35:50.591Z,100792.38
2022-12-08T10:38:57.904Z,100796.09
2022-12-08T10:42:21.733Z,100776.13
2022-12-08T10:45:37.714Z,100786.41
2022-12-08T10:49:05.018Z,100786.19
2022-12-08T10:52:24.778Z,100785.19
2022-12-08T10:55:41.552Z,100775.03
2022-12-08T10:58:48.875Z,100771.06
2022-12-08T11:01:57.640Z,100772.19
2022-12-08T11:05:04.167Z,100763.88
2022-12-08T11:08:12.338Z,100766.75
2022-12-08T11:11:21.112Z,100762.09
2022-12-08T11:14:32.152Z,100755.59
2022-12-08T11:17:44.346Z,100754.78
2022-12-08T11:21:02.938Z,100748.88
2022-12-08T11:24:30.229Z,100747.06
2022-12-08T11:27:48.672Z,100750.13
2022-12-08T11:31:00.758Z,100753.34
2022-12-08T11:34:10.647Z,100745.03
2022-12-08T11:37:29.943Z,100737.91
2022-12-08T11:40:43.186Z,100738.75
2022-12-08T11:44:30.174Z,100742.00
2022-12-08T11:47:56.490Z,100726.56
2022-12-08T11:51:33.910Z,100712.72
2022-12-08T11:54:47.421Z,100706.63
2022-12-08T11:57:58.055Z,100725.13
2022-12-08T12:01:05.167Z,100715.38
2022-12-08T12:04:41.607Z,100708.88
2022-12-08T12:08:04.682Z,100703.16
2022-12-08T12:12:08.190Z,100702.94
2022-12-08T12:15:29.959Z,100705.56
2022-12-08T12:18:46.775Z,100697.81
2022-12-08T12:21:56.710Z,100707.44
2022-12-08T12:25:03.584Z,100705.75
2022-12-08T12:28:13.861Z,100699.44
2022-12-08T12:31:25.333Z,100697.03
2022-12-08T12:34:37.906Z,100696.59
2022-12-08T12:37:44.046Z,100690.88
2022-12-08T12:40:50.986Z,100680.69
2022-12-08T12:44:13.384Z,100681.91
2022-12-08T12:47:56.024Z,100683.59
2022-12-08T12:51:41.469Z,100675.44
2022-12-08T12:54:50.005Z,100673.19
2022-12-08T12:57:58.982Z,100673.75
2022-12-08T13:01:13.953Z,100675.00
2022-12-08T13:04:20.678Z,100668.66
2022-12-08T13:07:31.546Z,100675.41
2022-12-08T13:10:49.058Z,100668.06
2022-12-08T13:14:04.062Z,100670.09
2022-12-08T13:17:14.198Z,100660.09
2022-12-08T13:20:26.422Z,100659.50
2022-12-08T13:23:38.412Z,100657.44
2022-12-08T13:27:08.910Z,100665.41
2022-12-08T13:31:12.392Z,100653.94
2022-12-08T13:34:29.389Z,100651.94
2022-12-08T13:37:54.852Z,100645.06
2022-12-08T13:41:03.838Z,100657.44
2022-12-08T13:48:30.186Z,100652.34
2022-12-08T13:56:51.448Z,100647.28
2022-12-08T13:59:25.509Z,100649.69
2022-12-08T14:02:48.476Z,100645.66
2022-12-08T14:06:12.068Z,100631.13
2022-12-08T14:09:25.157Z,100628.94
2022-12-08T14:12:33.221Z,100636.06
2022-12-08T14:15:41.155Z,100646.28
2022-12-08T14:18:46.829Z,100645.84
2022-12-08T14:22:02.061Z,100644.44
2022-12-08T14:25:14.485Z,100648.72
2022-12-08T14:28:22.000Z,100656.88
2022-12-08T14:31:29.747Z,100659.09
2022-12-08T14:34:41.627Z,100662.78
2022-12-08T14:37:55.152Z,100654.66
2022-12-08T14:41:08.114Z,100659.53
2022-12-08T14:44:24.494Z,100661.16
2022-12-08T14:47:33.145Z,100660.59
2022-12-08T14:50:42.234Z,100663.84
2022-12-08T14:54:01.489Z,100662.59
2022-12-08T14:57:10.860Z,100662.00
2022-12-08T15:00:22.407Z,100677.09
2022-12-08T15:03:32.208Z,100680.75
2022-12-08T15:06:38.637Z,100678.28
2022-12-08T15:09:47.739Z,100686.47
2022-12-08T15:13:20.619Z,100688.09
2022-12-08T15:16:29.291Z,100672.63
2022-12-08T15:19:35.520Z,100674.84
2022-12-08T15:22:46.307Z,100678.28
2022-12-08T15:25:55.111Z,100682.19
2022-12-08T15:29:30.180Z,100672.63
2022-12-08T15:32:35.809Z,100686.63
2022-12-08T15:35:43.828Z,100689.72
2022-12-08T15:38:49.732Z,100682.38
2022-12-08T15:41:56.468Z,100675.84
2022-12-08T15:45:01.585Z,100674.25
2022-12-08T15:48:07.878Z,100669.34
2022-12-08T15:51:14.326Z,100685.25
2022-12-08T15:54:19.961Z,100681.16
2022-12-08T16:00:58.840Z,100686.66
2022-12-08T16:05:11.587Z,100689.50
2022-12-08T16:07:32.232Z,100688.69
2022-12-08T16:11:10.705Z,100688.50
2022-12-08T16:14:36.842Z,100698.06
2022-12-08T16:17:29.953Z,100699.69
2022-12-08T16:21:05.818Z,100691.53
2022-12-08T16:24:08.927Z,100686.44
2022-12-08T16:27:59.282Z,100679.13
2022-12-08T16:30:48.544Z,100689.69
2022-12-08T16:33:54.195Z,100689.28
2022-12-08T16:37:00.183Z,100688.91
2022-12-08T16:40:07.902Z,100697.03
2022-12-08T16:43:14.773Z,100704.97
2022-12-08T16:46:27.438Z,100688.47
2022-12-08T16:49:33.615Z,100677.88
2022-12-08T16:52:39.743Z,100676.88
2022-12-08T16:55:49.707Z,100684.22
2022-12-08T16:58:55.028Z,100687.47
2022-12-08T17:02:00.994Z,100692.94
2022-12-08T17:05:07.577Z,100698.88
2022-12-08T17:08:14.386Z,100698.47
2022-12-08T17:11:22.997Z,100703.94
2022-12-08T17:14:29.861Z,100693.38
2022-12-08T17:17:37.659Z,100683.38
2022-12-08T17:20:44.566Z,100681.75
2022-12-08T17:23:50.608Z,100685.63
2022-12-08T17:27:00.372Z,100693.78
2022-12-08T17:30:09.262Z,100700.69
2022-12-08T17:33:15.339Z,100700.09
2022-12-08T17:36:23.710Z,100704.78
2022-12-08T17:39:29.716Z,100698.22
2022-12-08T17:42:36.609Z,100700.69
2022-12-08T17:45:48.513Z,100697.63
2022-12-08T17:48:54.659Z,100695.59
2022-12-08T17:52:03.787Z,100693.97
2022-12-08T17:55:10.914Z,100695.00
2022-12-08T17:58:17.257Z,100694.56
2022-12-08T18:01:24.545Z,100692.16
2022-12-08T18:04:32.786Z,100684.81
2022-12-08T18:07:39.744Z,100676.88
2022-12-08T18:10:47.279Z,100688.91
2022-12-08T18:13:53.735Z,100681.75
2022-12-08T18:16:59.432Z,100704.56
2022-12-08T18:20:07.019Z,100705.16
2022-12-08T18:23:14.177Z,100703.34
2022-12-08T18:26:21.455Z,100707.22
2022-12-08T18:29:26.770Z,100703.53
2022-12-08T18:32:33.252Z,100704.78
2022-12-08T18:35:40.706Z,100711.28
2022-12-08T18:38:46.686Z,100707.19
2022-12-08T18:41:53.821Z,100715.56
2022-12-08T18:45:03.306Z,100714.34
2022-12-08T18:48:09.219Z,100706.00
2022-12-08T18:51:23.789Z,100711.28
2022-12-08T18:54:49.965Z,100705.59
2022-12-08T18:57:55.470Z,100706.97
2022-12-08T19:01:01.112Z,100709.66
2022-12-08T19:04:39.511Z,100705.56
2022-12-08T19:07:36.275Z,100715.97
2022-12-08T19:10:42.280Z,100717.59
2022-12-08T19:13:48.162Z,100713.53
2022-12-08T19:16:54.007Z,100711.47
2022-12-08T19:20:00.704Z,100717.19
2022-12-08T19:23:08.054Z,100723.91
2022-12-08T19:26:13.898Z,100718.81
2022-12-08T19:29:19.659Z,100714.97
2022-12-08T19:32:26.091Z,100708.66
2022-12-08T19:35:31.427Z,100709.03
2022-12-08T19:38:57.980Z,100702.34
2022-12-08T19:42:23.090Z,100694.78
2022-12-08T19:45:29.110Z,100697.22
2022-12-08T19:48:35.545Z,100701.09
2022-12-08T19:51:41.708Z,100699.88
2022-12-08T19:54:47.847Z,100695.38
2022-12-08T19:57:57.176Z,100697.81
2022-12-08T20:01:03.258Z,100703.91
2022-12-08T20:04:09.192Z,100700.06
2022-12-08T20:07:15.216Z,100694.19
2022-12-08T20:10:25.898Z,100695.16
2022-12-08T20:13:48.433Z,100702.69
2022-12-08T20:16:54.659Z,100705.38
2022-12-08T20:20:05.274Z,100693.56
2022-12-08T20:23:14.555Z,100692.94
2022-12-08T20:26:22.536Z,100697.44
2022-12-08T20:29:29.133Z,100693.78
2022-12-08T20:32:34.804Z,100696.41
2022-12-08T20:35:40.831Z,100694.56
2022-12-08T20:38:48.995Z,100691.31
2022-12-08T20:41:56.558Z,100693.38
2022-12-08T20:45:02.016Z,100691.53
2022-12-08T20:48:07.953Z,100688.88
2022-12-08T20:51:16.413Z,100696.81
2022-12-08T20:54:22.385Z,100697.25
2022-12-08T20:57:28.732Z,100693.56
2022-12-08T21:00:35.964Z,100678.72
2022-12-08T21:03:44.097Z,100679.72
2022-12-08T21:06:50.927Z,100684.84
2022-12-08T21:09:57.271Z,100689.72
2022-12-08T21:13:03.409Z,100688.69
2022-12-08T21:16:13.730Z,100693.38
2022-12-08T21:19:20.835Z,100693.56
2022-12-08T21:22:26.700Z,100698.88
2022-12-08T21:25:33.328Z,100693.78
2022-12-08T21:28:40.780Z,100686.66
2022-12-08T21:31:47.024Z,100692.56
2022-12-08T21:34:53.629Z,100694.00
2022-12-08T21:38:01.556Z,100690.09
2022-12-08T21:41:11.329Z,100693.56
2022-12-08T21:44:20.636Z,100702.72
2022-12-08T21:47:26.542Z,100706.63
2022-12-08T21:50:32.803Z,100713.31
2022-12-08T21:53:38.663Z,100703.97
2022-12-08T21:56:45.712Z,100716.19
2022-12-08T21:59:51.546Z,100717.81
2022-12-08T22:02:58.365Z,100717.63
2022-12-08T22:06:10.510Z,100708.66
2022-12-08T22:09:16.926Z,100708.25
2022-12-08T22:12:23.277Z,100713.94
2022-12-08T22:15:32.302Z,100716.59
2022-12-08T22:18:38.752Z,100709.25
2022-12-08T22:21:44.730Z,100701.31
2022-12-08T22:24:51.188Z,100715.75
2022-12-08T22:27:57.433Z,100714.97
2022-12-08T22:31:14.900Z,100718.41
2022-12-08T22:34:20.746Z,100712.09
2022-12-08T22:37:27.435Z,100711.09
2022-12-08T22:40:33.634Z,100707.59
2022-12-08T22:43:40.186Z,100709.25
2022-12-08T22:46:46.563Z,100699.06
2022-12-08T22:49:52.996Z,100703.34
2022-12-08T22:52:58.896Z,100696.00
2022-12-08T22:56:10.646Z,100697.81
2022-12-08T22:59:16.536Z,100693.16
2022-12-08T23:02:22.540Z,100682.97
2022-12-08T23:05:33.369Z,100681.91
2022-12-08T23:08:40.284Z,100677.88
2022-12-08T23:11:47.084Z,100680.72
2022-12-08T23:14:52.783Z,100674.81
2022-12-08T23:17:59.308Z,100674.00
2022-12-08T23:21:08.422Z,100669.50
2022-12-08T23:24:15.426Z,100668.91
2022-12-08T23:27:21.103Z,100677.06
2022-12-08T23:30:26.798Z,100677.28
2022-12-08T23:33:32.264Z,100679.47
2022-12-08T23:36:38.076Z,100682.75
2022-12-08T23:39:47.041Z,100680.88
2022-12-08T23:42:52.657Z,100684.38
2022-12-08T23:45:58.472Z,100680.53
2022-12-08T23:49:05.456Z,100679.31
2022-12-08T23:52:13.800Z,100677.47
2022-12-08T23:55:19.846Z,100671.16
2022-12-08T23:58:25.441Z,100668.13
